Time;durP1;ratioP1;P1;durP2;ratioP2;P2;SDS_P1;SDS_P2;PMS_P1;PMS_P2;Temp;Humidity;BMP_temperature;BMP_pressure;BME280_temperature;BME280_humidity;BME280_pressure;Samples;Min_cycle;Max_cycle;Signal;HPM_P1;HPM_P2
2022/11/13 13:30:15;;;;;;;;;12.50;10.25;;;;;19.66;56.03;101512.50;5029216;28;45673;-82
2022/11/13 13:33:49;;;;;;;;;12.25;12.25;;;;;19.93;55.69;101505.88;5063321;27;45557;-87
2022/11/13 13:36:27;;;;;;;;;12.75;10.25;;;;;20.24;55.68;101500.66;5047708;28;47303;-82
2022/11/13 13:39:11;;;;;;;;;12.25;12.25;;;;;20.58;55.41;101504.19;5056058;28;45720;-82
2022/11/13 13:42:19;;;;;;;;;11.33;10.00;;;;;20.98;54.68;101490.03;5049390;28;45942;-84
2022/11/13 13:45:02;;;;;;;;;12.50;12.50;;;;;21.33;53.48;101487.91;5050893;27;46895;-82
2022/11/13 13:47:34;;;;;;;;;12.75;12.50;;;;;21.65;52.80;101494.13;5051371;28;45731;-83
2022/11/13 13:49:59;;;;;;;;;13.67;11.33;;;;;21.89;52.34;101491.09;5055034;27;45464;-85
2022/11/13 13:52:34;;;;;;;;;7.33;7.33;;;;;22.14;51.97;101482.59;5048511;28;46434;-86
2022/11/13 13:55:02;;;;;;;;;10.67;10.67;;;;;22.34;51.92;101478.03;5055473;28;45459;-83
2022/11/13 13:57:29;;;;;;;;;9.33;9.33;;;;;22.50;51.23;101483.72;5050345;28;45562;-84
2022/11/13 13:59:55;;;;;;;;;10.00;9.00;;;;;22.63;50.71;101472.63;5053278;28;45499;-84
2022/11/13 14:02:22;;;;;;;;;11.00;9.67;;;;;22.77;50.41;101474.03;5049977;28;45615;-84
2022/11/13 14:04:50;;;;;;;;;10.67;9.00;;;;;22.89;50.20;101466.59;5049834;28;46310;-85
2022/11/13 14:07:27;;;;;;;;;13.67;12.67;;;;;23.02;49.85;101468.13;5053935;28;45618;-87
2022/11/13 14:10:13;;;;;;;;;13.67;10.67;;;;;23.11;49.58;101463.66;5051946;28;45614;-86
2022/11/13 14:12:43;;;;;;;;;12.67;10.00;;;;;23.20;49.35;101480.88;5053278;28;45539;-86
2022/11/13 14:15:37;;;;;;;;;11.67;9.33;;;;;23.28;49.01;101471.03;5052339;28;45832;-86
2022/11/13 14:18:16;;;;;;;;;9.33;9.00;;;;;23.36;48.94;101474.84;5044408;28;45564;-88
2022/11/13 14:20:51;;;;;;;;;8.33;8.33;;;;;23.41;48.67;101475.25;5055529;27;45672;-86
2022/11/13 14:23:27;;;;;;;;;12.00;9.00;;;;;23.45;48.49;101473.94;5051658;28;45490;-81
2022/11/13 14:25:54;;;;;;;;;12.67;11.33;;;;;23.48;48.36;101473.66;5062666;27;46443;-90
2022/11/13 14:28:25;;;;;;;;;11.00;11.00;;;;;23.52;48.53;101472.38;5062268;28;45523;-80
2022/11/13 14:30:57;;;;;;;;;9.00;8.33;;;;;23.57;48.09;101471.91;5076822;27;45591;-81
2022/11/13 14:33:39;;;;;;;;;10.33;9.00;;;;;23.61;48.03;101467.03;5049696;28;47402;-79
2022/11/13 14:36:05;;;;;;;;;6.00;6.00;;;;;23.67;47.60;101474.56;5058248;28;46377;-80
2022/11/13 14:38:34;;;;;;;;;6.00;5.00;;;;;23.69;47.07;101472.53;5055826;28;45431;-78
2022/11/13 14:41:01;;;;;;;;;12.67;9.00;;;;;23.69;47.29;101473.41;5058855;28;45375;-78
2022/11/13 14:43:30;;;;;;;;;11.00;9.67;;;;;23.69;47.15;101465.28;5056812;27;45692;-80
2022/11/13 14:46:01;;;;;;;;;10.33;9.67;;;;;23.71;47.27;101459.72;5057611;28;46143;-83
2022/11/13 14:48:32;;;;;;;;;4.67;4.67;;;;;23.74;47.33;101464.81;5035805;28;45546;-81
2022/11/13 14:51:03;;;;;;;;;8.00;6.67;;;;;23.77;47.36;101455.50;5037906;28;45496;-80
2022/11/13 14:53:38;;;;;;;;;7.00;7.00;;;;;23.80;47.26;101447.09;5052926;28;45640;-82
2022/11/13 14:56:08;;;;;;;;;8.00;8.00;;;;;23.84;47.34;101440.34;5043579;28;46309;-80
2022/11/13 14:58:38;;;;;;;;;11.00;10.00;;;;;23.89;47.34;101439.88;5036385;28;46977;-81
2022/11/13 15:01:14;;;;;;;;;8.00;8.00;;;;;23.95;47.18;101442.00;5033702;28;45587;-81
2022/11/13 15:03:39;;;;;;;;;10.33;8.33;;;;;23.99;47.17;101440.66;5038207;28;46011;-82
2022/11/13 15:06:15;;;;;;;;;9.00;7.67;;;;;24.03;47.03;101427.66;5034919;28;47202;-81
2022/11/13 15:08:42;;;;;;;;;7.67;7.67;;;;;24.07;46.96;101435.31;5038353;28;45550;-82
2022/11/13 15:11:13;;;;;;;;;6.67;6.67;;;;;24.11;46.96;101438.59;5032940;28;45969;-81
2022/11/13 15:13:38;;;;;;;;;7.33;7.33;;;;;24.14;46.85;101427.44;5039721;28;45595;-80
2022/11/13 15:16:04;;;;;;;;;8.67;8.00;;;;;24.16;46.83;101436.25;5036039;28;57711;-82
2022/11/13 15:18:29;;;;;;;;;6.33;6.00;;;;;24.20;47.17;101426.81;5034847;28;45557;-82
2022/11/13 15:20:55;;;;;;;;;8.00;8.00;;;;;24.24;46.90;101421.09;5039116;28;46172;-82
2022/11/13 15:23:24;;;;;;;;;11.00;8.00;;;;;24.26;47.10;101411.78;5047712;28;45540;-79
2022/11/13 15:25:49;;;;;;;;;6.67;6.67;;;;;24.28;46.76;101409.75;5043283;28;45554;-83
2022/11/13 15:28:14;;;;;;;;;12.00;7.67;;;;;24.30;46.83;101409.59;5033916;28;45477;-79
2022/11/13 15:30:40;;;;;;;;;8.00;5.67;;;;;24.31;46.52;101406.72;5039275;28;45426;-77
2022/11/13 15:33:12;;;;;;;;;7.00;7.00;;;;;24.32;46.54;101407.59;5032832;28;45718;-77
2022/11/13 15:35:37;;;;;;;;;7.33;7.33;;;;;24.34;46.47;101402.84;5033619;28;45554;-80
2022/11/13 15:38:02;;;;;;;;;7.00;6.67;;;;;24.34;46.34;101403.72;5035768;28;47203;-77
2022/11/13 15:40:28;;;;;;;;;10.33;8.67;;;;;24.34;46.22;101398.28;5033870;28;50840;-76
2022/11/13 15:42:54;;;;;;;;;7.33;7.33;;;;;24.33;46.00;101396.56;5034905;28;45637;-83
2022/11/13 15:45:19;;;;;;;;;8.67;8.00;;;;;24.34;46.16;101398.28;5033378;28;46091;-80
2022/11/13 15:47:44;;;;;;;;;8.67;8.67;;;;;24.34;46.48;101383.84;5032355;28;58384;-79
2022/11/13 15:50:10;;;;;;;;;10.67;8.00;;;;;24.36;46.23;101383.72;5034735;28;47361;-77
2022/11/13 15:52:39;;;;;;;;;9.00;7.00;;;;;24.37;46.31;101380.84;5034170;28;45604;-76
2022/11/13 15:55:17;;;;;;;;;8.67;7.00;;;;;24.37;46.26;101380.84;5036098;28;46108;-76
2022/11/13 15:57:42;;;;;;;;;9.33;8.33;;;;;24.38;46.40;101378.97;5048742;28;47387;-77
2022/11/13 16:00:16;;;;;;;;;4.67;4.67;;;;;24.39;46.25;101367.94;5033920;28;45531;-77
2022/11/13 16:02:41;;;;;;;;;6.33;6.33;;;;;24.38;46.27;101370.81;5032891;28;45547;-80
2022/11/13 16:05:07;;;;;;;;;6.67;6.67;;;;;24.40;46.10;101374.25;5035254;28;47088;-79
2022/11/13 16:07:32;;;;;;;;;7.00;6.00;;;;;24.40;46.25;101371.53;5034385;28;45479;-80
2022/11/13 16:09:58;;;;;;;;;5.67;5.67;;;;;24.42;46.00;101377.63;5035368;28;47246;-81
2022/11/13 16:12:23;;;;;;;;;7.67;7.33;;;;;24.42;45.91;101367.66;5032845;28;45536;-79
